Time;durP1;ratioP1;P1;durP2;ratioP2;P2;SDS_P1;SDS_P2;PMS_P1;PMS_P2;Temp;Humidity;BMP_temperature;BMP_pressure;BME280_temperature;BME280_humidity;BME280_pressure;Samples;Min_cycle;Max_cycle;Signal;HPM_P1;HPM_P2
2024/01/08 00:00:40;;;;;;;;;;;;;;;-15.56;71.20;95503.13;6229377;28;19921;-66
2024/01/08 00:03:43;;;;;;;;;;;;;;;-15.71;70.71;95498.72;6245769;28;20012;-65
2024/01/08 00:06:46;;;;;;;;;;;;;;;-15.83;69.54;95493.53;6246839;28;20291;-67
2024/01/08 00:09:49;;;;;;;;;;;;;;;-15.66;70.96;95497.09;6246227;28;19921;-66
2024/01/08 00:12:50;;;;;;;;;;;;;;;-15.62;71.27;95483.72;6245050;28;20010;-66
2024/01/08 00:15:51;;;;;;;;;;;;;;;-15.69;70.83;95472.72;6245774;28;19921;-66
2024/01/08 00:18:55;;;;;;;;;;;;;;;-15.77;70.73;95475.97;6246190;28;19931;-65
2024/01/08 00:21:58;;;;;;;;;;;;;;;-15.83;70.52;95468.34;6245432;28;20012;-65
2024/01/08 00:25:02;;;;;;;;;;;;;;;-15.81;70.75;95472.56;6244627;28;20038;-66
2024/01/08 00:28:04;;;;;;;;;;;;;;;-15.83;70.93;95474.22;6245415;28;19928;-65
2024/01/08 00:31:08;;;;;;;;;;;;;;;-15.79;71.53;95480.13;6244743;28;20472;-66
2024/01/08 00:34:12;;;;;;;;;;;;;;;-15.67;71.52;95495.41;6245822;28;19920;-66
2024/01/08 00:37:13;;;;;;;;;;;;;;;-15.80;71.21;95504.50;6245821;28;19928;-66
2024/01/08 00:40:14;;;;;;;;;;;;;;;-15.81;70.92;95507.00;6245138;28;19921;-66
2024/01/08 00:43:17;;;;;;;;;;;;;;;-15.71;71.58;95506.28;6245817;28;19921;-66
2024/01/08 00:46:18;;;;;;;;;;;;;;;-15.63;71.94;95507.22;6244771;28;19928;-66
2024/01/08 00:49:19;;;;;;;;;;;;;;;-15.51;71.71;95514.09;6244940;28;19921;-66
2024/01/08 00:52:20;;;;;;;;;;;;;;;-15.47;71.82;95504.09;6247989;28;19921;-66
2024/01/08 00:55:21;;;;;;;;;;;;;;;-15.36;71.41;95500.88;6224862;28;1283214;-65
2024/01/08 00:58:22;;;;;;;;;;;;;;;-15.17;70.70;95502.75;6253013;28;20006;-66
2024/01/08 01:01:26;;;;;;;;;;;;;;;-15.20;70.87;95507.78;6270849;28;20009;-67
2024/01/08 01:04:29;;;;;;;;;;;;;;;-15.18;70.99;95518.75;6252833;28;19921;-66
2024/01/08 01:07:36;;;;;;;;;;;;;;;-15.11;70.96;95517.13;6253537;28;19921;-66
2024/01/08 01:10:37;;;;;;;;;;;;;;;-15.05;70.71;95507.97;6270451;28;20302;-65
2024/01/08 01:13:42;;;;;;;;;;;;;;;-14.87;70.31;95517.41;6270810;28;19917;-66
2024/01/08 01:16:43;;;;;;;;;;;;;;;-14.78;70.43;95506.56;6252983;28;20082;-66
2024/01/08 01:19:44;;;;;;;;;;;;;;;-14.67;69.57;95510.06;6270182;28;19917;-67
2024/01/08 01:22:47;;;;;;;;;;;;;;;-14.78;69.47;95502.38;6252527;28;19920;-66
2024/01/08 01:25:49;;;;;;;;;;;;;;;-14.80;69.81;95504.03;6270538;28;19971;-66
2024/01/08 01:28:50;;;;;;;;;;;;;;;-14.67;69.39;95494.91;6270057;28;19920;-66
2024/01/08 01:31:54;;;;;;;;;;;;;;;-14.68;69.49;95523.53;6252557;28;19927;-66
2024/01/08 01:34:55;;;;;;;;;;;;;;;-14.66;69.33;95516.81;6270113;28;19921;-66
2024/01/08 01:37:58;;;;;;;;;;;;;;;-14.74;69.29;95518.41;6270146;28;20475;-66
2024/01/08 01:40:59;;;;;;;;;;;;;;;-14.87;69.13;95514.06;6269674;28;19943;-68
2024/01/08 01:44:02;;;;;;;;;;;;;;;-14.85;69.64;95525.03;6270239;28;19920;-66
2024/01/08 01:47:03;;;;;;;;;;;;;;;-14.59;69.29;95542.97;6269401;28;20405;-67
2024/01/08 01:50:07;;;;;;;;;;;;;;;-14.77;69.26;95528.47;6270071;28;19974;-66
2024/01/08 01:53:08;;;;;;;;;;;;;;;-14.61;69.46;95535.38;6259886;28;19917;-66
2024/01/08 01:56:09;;;;;;;;;;;;;;;-14.67;69.01;95539.50;6244443;28;19927;-66
2024/01/08 01:59:11;;;;;;;;;;;;;;;-14.77;69.49;95528.47;6244949;28;19921;-65
2024/01/08 02:02:14;;;;;;;;;;;;;;;-14.79;68.99;95532.66;6244939;28;20321;-66
2024/01/08 02:05:16;;;;;;;;;;;;;;;-14.88;68.89;95547.72;6244896;28;19921;-67
2024/01/08 02:08:17;;;;;;;;;;;;;;;-14.94;69.88;95540.91;6226537;28;19920;-67
2024/01/08 02:11:18;;;;;;;;;;;;;;;-15.01;70.10;95554.28;6244914;28;19921;-65
2024/01/08 02:14:19;;;;;;;;;;;;;;;-14.95;70.39;95550.13;6244862;28;20439;-67
2024/01/08 02:17:21;;;;;;;;;;;;;;;-14.88;70.49;95545.19;6244919;28;19920;-66
2024/01/08 02:20:25;;;;;;;;;;;;;;;-14.78;70.45;95552.00;6244929;28;20312;-65
2024/01/08 02:23:28;;;;;;;;;;;;;;;-14.82;70.41;95570.50;6244453;28;19921;-67
2024/01/08 02:26:29;;;;;;;;;;;;;;;-14.83;70.63;95578.88;6244739;28;20067;-66
2024/01/08 02:29:35;;;;;;;;;;;;;;;-14.94;70.86;95572.03;6244668;28;19925;-65
2024/01/08 02:32:36;;;;;;;;;;;;;;;-15.04;71.06;95570.22;6244126;28;19929;-66
2024/01/08 02:35:37;;;;;;;;;;;;;;;-15.07;71.04;95600.47;6243724;28;19921;-66
2024/01/08 02:38:38;;;;;;;;;;;;;;;-15.01;71.67;95584.56;6244573;28;19921;-66
2024/01/08 02:41:39;;;;;;;;;;;;;;;-14.87;71.44;95593.16;6243910;28;19925;-66
2024/01/08 02:44:45;;;;;;;;;;;;;;;-14.71;71.34;95594.19;6244567;28;19921;-66
2024/01/08 02:47:49;;;;;;;;;;;;;;;-14.63;71.28;95602.72;6244586;28;19924;-67
2024/01/08 02:50:50;;;;;;;;;;;;;;;-14.67;70.91;95600.97;6243500;28;20386;-66
2024/01/08 02:53:50;;;;;;;;;;;;;;;-14.65;71.42;95589.22;6241086;28;20061;-66
2024/01/08 02:56:52;;;;;;;;;;;;;;;-14.71;71.50;95595.03;6268521;28;19924;-66
2024/01/08 02:59:55;;;;;;;;;;;;;;;-14.72;71.43;95597.53;6268885;28;19920;-67
2024/01/08 03:02:58;;;;;;;;;;;;;;;-14.60;72.04;95607.78;6268761;28;20306;-67
2024/01/08 03:06:00;;;;;;;;;;;;;;;-14.67;71.49;95598.44;6267975;28;19969;-65
2024/01/08 03:09:01;;;;;;;;;;;;;;;-14.66;71.92;95596.75;6268955;28;19959;-66
2024/01/08 03:12:02;;;;;;;;;;;;;;;-14.73;71.62;95600.88;6268686;28;19927;-66
2024/01/08 03:15:03;;;;;;;;;;;;;;;-14.55;71.64;95596.06;6268758;28;19928;-66
2024/01/08 03:18:04;;;;;;;;;;;;;;;-14.44;70.97;95603.72;6268152;28;19932;-66
2024/01/08 03:21:06;;;;;;;;;;;;;;;-14.53;71.04;95607.00;6251126;28;19921;-67
2024/01/08 03:24:09;;;;;;;;;;;;;;;-14.57;71.21;95605.28;6268507;28;19922;-66
2024/01/08 03:27:13;;;;;;;;;;;;;;;-14.67;71.64;95606.00;6268614;28;19920;-66
2024/01/08 03:30:15;;;;;;;;;;;;;;;-14.65;71.86;95603.50;6267673;28;20019;-66
2024/01/08 03:33:18;;;;;;;;;;;;;;;-14.67;71.76;95600.97;6250665;28;19921;-66
2024/01/08 03:36:21;;;;;;;;;;;;;;;-14.56;72.05;95601.94;6268438;28;19927;-66
2024/01/08 03:39:22;;;;;;;;;;;;;;;-14.59;71.89;95609.47;6250738;28;19920;-66
2024/01/08 03:42:24;;;;;;;;;;;;;;;-14.59;71.86;95606.09;6249781;28;19921;-67
2024/01/08 03:45:24;;;;;;;;;;;;;;;-14.62;71.88;95609.44;6267620;28;19928;-66
2024/01/08 03:48:28;;;;;;;;;;;;;;;-14.83;72.33;95609.16;6272733;28;20386;-66
2024/01/08 03:51:30;;;;;;;;;;;;;;;-14.93;71.99;95630.94;6271964;28;19927;-66
2024/01/08 03:54:31;;;;;;;;;;;;;;;-14.75;72.73;95612.63;6250655;28;19927;-66
2024/01/08 03:57:35;;;;;;;;;;;;;;;-14.94;72.23;95617.47;6248028;28;20020;-66
2024/01/08 04:00:38;;;;;;;;;;;;;;;-15.07;72.45;95624.84;6247345;28;20314;-67
2024/01/08 04:03:39;;;;;;;;;;;;;;;-14.99;72.60;95616.56;6247939;28;19921;-67
2024/01/08 04:06:40;;;;;;;;;;;;;;;-15.00;72.25;95631.66;6229843;28;19968;-67
2024/01/08 04:09:43;;;;;;;;;;;;;;;-14.91;72.43;95636.03;6247529;28;19928;-66
2024/01/08 04:12:49;;;;;;;;;;;;;;;-14.84;71.87;95648.72;6247826;28;19921;-66
2024/01/08 04:15:55;;;;;;;;;;;;;;;-14.93;71.95;95649.44;6248383;28;19972;-67
2024/01/08 04:18:56;;;;;;;;;;;;;;;-14.88;71.29;95658.78;6246866;28;19943;-67
2024/01/08 04:22:02;;;;;;;;;;;;;;;-15.03;71.02;95656.88;6229187;28;20574;-66
2024/01/08 04:25:03;;;;;;;;;;;;;;;-15.07;71.05;95643.34;6246070;28;19921;-66
2024/01/08 04:28:04;;;;;;;;;;;;;;;-15.03;71.67;95652.69;6246804;28;19920;-66
2024/01/08 04:31:05;;;;;;;;;;;;;;;-15.09;71.20;95657.63;6247460;28;19951;-68
2024/01/08 04:34:06;;;;;;;;;;;;;;;-15.12;71.08;95665.16;6246919;28;19921;-67
2024/01/08 04:37:09;;;;;;;;;;;;;;;-15.02;70.98;95664.47;6247235;28;20314;-68
2024/01/08 04:40:11;;;;;;;;;;;;;;;-14.95;70.82;95666.22;6246511;28;19947;-66
2024/01/08 04:43:13;;;;;;;;;;;;;;;-15.03;70.92;95662.78;6246679;28;19921;-67
2024/01/08 04:46:14;;;;;;;;;;;;;;;-15.07;71.00;95676.16;6261584;28;19991;-66
2024/01/08 04:49:17;;;;;;;;;;;;;;;-15.03;71.01;95667.84;6246260;28;19921;-66
2024/01/08 04:52:18;;;;;;;;;;;;;;;-14.90;70.94;95653.69;6246069;28;19943;-67
2024/01/08 04:55:20;;;;;;;;;;;;;;;-15.12;70.80;95657.59;6245889;28;19921;-67
2024/01/08 04:58:21;;;;;;;;;;;;;;;-15.08;70.61;95659.34;6269400;28;20035;-66
2024/01/08 05:01:23;;;;;;;;;;;;;;;-15.12;71.08;95662.63;6270731;28;20027;-67
2024/01/08 05:04:24;;;;;;;;;;;;;;;-15.09;70.68;95670.25;6271052;28;20003;-67
2024/01/08 05:07:27;;;;;;;;;;;;;;;-15.13;70.83;95677.75;6271282;28;19920;-67
2024/01/08 05:10:28;;;;;;;;;;;;;;;-15.12;70.73;95692.91;6271102;28;19920;-67
2024/01/08 05:13:31;;;;;;;;;;;;;;;-15.20;70.49;95704.56;6271168;28;20302;-67
2024/01/08 05:16:35;;;;;;;;;;;;;;;-15.04;70.75;95703.13;6271113;28;20007;-67
2024/01/08 05:19:36;;;;;;;;;;;;;;;-15.09;70.55;95707.25;6270730;28;19920;-66
2024/01/08 05:22:39;;;;;;;;;;;;;;;-15.14;70.46;95703.78;6270734;28;19920;-66
2024/01/08 05:25:40;;;;;;;;;;;;;;;-15.01;70.16;95711.56;6270763;28;19920;-67
2024/01/08 05:28:41;;;;;;;;;;;;;;;-15.01;69.86;95709.06;6269982;28;19928;-67
2024/01/08 05:31:42;;;;;;;;;;;;;;;-14.96;70.38;95704.94;6269652;28;19921;-67
2024/01/08 05:34:43;;;;;;;;;;;;;;;-14.97;70.19;95703.25;6270132;28;19970;-66
2024/01/08 05:37:46;;;;;;;;;;;;;;;-14.85;70.31;95701.72;6270214;28;19943;-67
2024/01/08 05:40:50;;;;;;;;;;;;;;;-14.85;70.31;95716.88;6270122;28;19921;-66
2024/01/08 05:43:53;;;;;;;;;;;;;;;-14.79;70.11;95717.78;6269893;28;19932;-67
2024/01/08 05:46:56;;;;;;;;;;;;;;;-14.73;70.46;95732.19;6270362;28;20314;-66
2024/01/08 05:50:03;;;;;;;;;;;;;;;-14.82;69.91;95735.44;6270095;28;19920;-67
2024/01/08 05:53:04;;;;;;;;;;;;;;;-15.01;69.72;95746.91;6269471;28;20007;-67
2024/01/08 05:56:09;;;;;;;;;;;;;;;-15.04;70.40;95756.97;6263370;28;19933;-67
2024/01/08 05:59:13;;;;;;;;;;;;;;;-15.20;70.13;95757.53;6244174;28;20023;-67
2024/01/08 06:02:14;;;;;;;;;;;;;;;-15.30;69.75;95760.75;6244912;28;19927;-66
2024/01/08 06:05:20;;;;;;;;;;;;;;;-15.29;70.44;95762.44;6244591;28;19921;-66
2024/01/08 06:08:21;;;;;;;;;;;;;;;-15.13;70.79;95766.91;6244121;28;19987;-66
2024/01/08 06:11:24;;;;;;;;;;;;;;;-15.05;70.25;95765.38;6244303;28;19925;-66
2024/01/08 06:14:25;;;;;;;;;;;;;;;-15.12;69.92;95765.25;6244437;28;20516;-66
2024/01/08 06:17:26;;;;;;;;;;;;;;;-15.11;70.21;95760.22;6244393;28;20609;-66
2024/01/08 06:20:30;;;;;;;;;;;;;;;-15.14;70.21;95765.22;6244794;28;19921;-67
2024/01/08 06:23:35;;;;;;;;;;;;;;;-15.08;70.63;95765.31;6244877;28;19925;-68
2024/01/08 06:26:36;;;;;;;;;;;;;;;-15.01;70.55;95777.19;6244173;28;19928;-67
2024/01/08 06:29:37;;;;;;;;;;;;;;;-14.90;70.26;95779.06;6243757;28;19921;-68
2024/01/08 06:32:38;;;;;;;;;;;;;;;-14.82;69.90;95772.44;6243211;28;19917;-66
2024/01/08 06:35:42;;;;;;;;;;;;;;;-14.84;70.26;95764.84;6244553;28;19921;-67
2024/01/08 06:38:47;;;;;;;;;;;;;;;-14.70;69.66;95777.66;6244236;28;19925;-66
2024/01/08 06:41:51;;;;;;;;;;;;;;;-14.90;69.28;95776.53;6244472;28;19924;-68
2024/01/08 06:44:52;;;;;;;;;;;;;;;-15.03;69.55;95772.94;6243555;28;19917;-67
2024/01/08 06:47:55;;;;;;;;;;;;;;;-14.89;69.55;95780.75;6226035;28;20399;-67
2024/01/08 06:51:01;;;;;;;;;;;;;;;-14.76;69.94;95793.56;6244075;28;19924;-66
2024/01/08 06:54:03;;;;;;;;;;;;;;;-14.65;69.50;95791.22;6244144;28;19978;-67
2024/01/08 06:57:06;;;;;;;;;;;;;;;-14.65;69.91;95791.22;6244143;28;19921;-67
2024/01/08 07:00:08;;;;;;;;;;;;;;;-14.61;69.45;95803.06;6243908;28;19921;-66
2024/01/08 07:03:09;;;;;;;;;;;;;;;-14.53;69.15;95801.50;6243184;28;20314;-67
2024/01/08 07:06:10;;;;;;;;;;;;;;;-14.57;69.09;95809.03;6243292;28;19921;-67
2024/01/08 07:09:11;;;;;;;;;;;;;;;-14.61;69.20;95823.25;6243984;28;20015;-67
2024/01/08 07:12:16;;;;;;;;;;;;;;;-14.58;68.48;95830.88;6244079;28;19975;-67
2024/01/08 07:15:37;;;;;;;;;;;;;;;-14.50;68.31;95846.97;6243390;28;19916;-67
2024/01/08 07:18:44;;;;;;;;;;;;;;;-14.74;67.91;95836.53;6243851;28;19925;-66
2024/01/08 07:21:48;;;;;;;;;;;;;;;-14.64;67.72;95851.00;6245711;28;19917;-66
2024/01/08 07:24:50;;;;;;;;;;;;;;;-14.61;67.99;95857.75;6248487;28;20015;-67
2024/01/08 07:27:51;;;;;;;;;;;;;;;-12.12;67.96;95876.53;6230446;28;19925;-67
2024/01/08 07:30:52;;;;;;;;;;;;;;;-8.37;60.58;95893.41;6248056;28;19920;-66
2024/01/08 07:33:53;;;;;;;;;;;;;;;-5.88;56.56;95876.78;6248337;28;19991;-67
2024/01/08 07:36:56;;;;;;;;;;;;;;;-4.44;54.86;95897.97;6248395;28;19983;-67
2024/01/08 07:40:00;;;;;;;;;;;;;;;-3.16;54.11;95891.44;6248497;28;19928;-68
2024/01/08 07:43:04;;;;;;;;;;;;;;;-2.00;53.13;95915.56;6247900;28;19927;-67
2024/01/08 07:46:10;;;;;;;;;;;;;;;-1.22;52.84;95909.59;6248104;28;19920;-67
2024/01/08 07:49:11;;;;;;;;;;;;;;;-0.39;52.37;95922.19;6248160;28;19944;-66
2024/01/08 07:52:12;;;;;;;;;;;;;;;0.08;52.80;95917.78;6232016;28;19967;-66
2024/01/08 07:55:13;;;;;;;;;;;;;;;0.55;52.48;95924.56;6254816;28;19922;-68
2024/01/08 07:58:17;;;;;;;;;;;;;;;1.06;51.89;95939.69;6272421;28;19920;-67
2024/01/08 08:01:18;;;;;;;;;;;;;;;1.80;51.11;95954.63;6272250;28;19927;-67
2024/01/08 08:04:19;;;;;;;;;;;;;;;2.60;49.58;95959.56;6272679;28;19921;-66
2024/01/08 08:07:20;;;;;;;;;;;;;;;2.96;49.42;95974.28;6272655;28;19928;-67
2024/01/08 08:10:23;;;;;;;;;;;;;;;3.02;50.33;95966.19;6272282;28;20313;-67
2024/01/08 08:13:24;;;;;;;;;;;;;;;2.95;50.80;95975.22;6271520;28;19920;-68
2024/01/08 08:16:31;;;;;;;;;;;;;;;3.25;50.10;95977.19;6272116;28;19927;-67
2024/01/08 08:19:32;;;;;;;;;;;;;;;3.49;49.90;95968.16;6271655;28;20055;-67
2024/01/08 08:22:34;;;;;;;;;;;;;;;3.98;49.21;95970.78;6272382;28;19990;-67
2024/01/08 08:25:34;;;;;;;;;;;;;;;4.47;48.30;95965.56;6272488;28;20287;-66
2024/01/08 08:28:38;;;;;;;;;;;;;;;4.79;48.53;95970.72;6272495;28;19921;-66
2024/01/08 08:31:39;;;;;;;;;;;;;;;5.05;47.82;95966.63;6271277;28;20329;-68
2024/01/08 08:34:45;;;;;;;;;;;;;;;5.27;47.24;95965.41;6271364;28;19920;-69
2024/01/08 08:37:46;;;;;;;;;;;;;;;5.14;46.75;95967.88;6253216;28;19947;-69
2024/01/08 08:40:49;;;;;;;;;;;;;;;5.08;46.51;95976.06;6271910;28;19920;-68
2024/01/08 08:43:54;;;;;;;;;;;;;;;4.81;46.33;95968.88;6271925;28;19928;-67
2024/01/08 08:46:55;;;;;;;;;;;;;;;4.66;46.71;95985.34;6271098;28;19927;-67
2024/01/08 08:49:56;;;;;;;;;;;;;;;5.03;45.82;95984.13;6271596;28;20390;-67
2024/01/08 08:52:59;;;;;;;;;;;;;;;4.81;45.00;95983.66;6244462;28;20382;-68
2024/01/08 08:56:01;;;;;;;;;;;;;;;4.20;44.93;95980.91;6245961;28;19920;-66
2024/01/08 08:59:06;;;;;;;;;;;;;;;3.94;44.84;95986.66;6246683;28;19921;-68
2024/01/08 09:02:10;;;;;;;;;;;;;;;3.71;44.32;95990.44;6246589;28;19960;-68
2024/01/08 09:05:13;;;;;;;;;;;;;;;3.69;43.91;96003.56;6246254;28;19925;-68
2024/01/08 09:08:17;;;;;;;;;;;;;;;3.50;43.03;95998.44;6228507;28;20032;-68
2024/01/08 09:11:21;;;;;;;;;;;;;;;3.14;42.87;96006.31;6246158;28;20011;-67
2024/01/08 09:14:27;;;;;;;;;;;;;;;2.86;43.17;96001.63;6246336;28;20380;-68
2024/01/08 09:17:31;;;;;;;;;;;;;;;2.80;43.18;96012.31;6246176;28;19920;-67
2024/01/08 09:20:33;;;;;;;;;;;;;;;2.84;42.69;96011.25;6246417;28;20453;-68
2024/01/08 09:23:35;;;;;;;;;;;;;;;3.12;42.57;96019.41;6245157;28;19928;-67
2024/01/08 09:26:36;;;;;;;;;;;;;;;3.07;42.67;96026.56;6246092;28;20429;-66
2024/01/08 09:29:41;;;;;;;;;;;;;;;3.04;42.17;96031.09;6245789;28;20015;-68
2024/01/08 09:32:47;;;;;;;;;;;;;;;2.82;41.99;96046.88;6245742;28;20656;-68
2024/01/08 09:35:51;;;;;;;;;;;;;;;2.42;42.41;96051.31;6245302;28;19925;-68
2024/01/08 09:38:55;;;;;;;;;;;;;;;1.82;39.96;96063.53;6227706;28;19928;-67
2024/01/08 09:41:57;;;;;;;;;;;;;;;1.75;44.24;96065.53;6244977;28;20412;-67
2024/01/08 09:45:07;;;;;;;;;;;;;;;1.71;44.90;96066.56;6245155;28;19928;-67
2024/01/08 09:48:09;;;;;;;;;;;;;;;1.74;45.38;96077.66;6245040;28;19928;-68
2024/01/08 09:51:12;;;;;;;;;;;;;;;1.75;45.30;96086.28;6245414;28;20370;-68
2024/01/08 09:54:21;;;;;;;;;;;;;;;1.45;45.11;96106.56;6247318;28;19920;-67
2024/01/08 09:57:27;;;;;;;;;;;;;;;1.48;44.86;96101.25;6272012;28;19921;-67
2024/01/08 10:00:28;;;;;;;;;;;;;;;1.45;43.97;96107.41;6269695;28;19921;-68
2024/01/08 10:03:31;;;;;;;;;;;;;;;1.19;43.74;96107.59;6269639;28;20369;-68
2024/01/08 10:06:34;;;;;;;;;;;;;;;0.82;43.40;96116.81;6269711;28;20382;-68
2024/01/08 10:09:38;;;;;;;;;;;;;;;0.71;43.39;96135.38;6269558;28;19921;-67
2024/01/08 10:12:42;;;;;;;;;;;;;;;1.13;43.80;96132.00;6269788;28;19920;-68
2024/01/08 10:15:47;;;;;;;;;;;;;;;1.30;43.54;96139.09;6268594;28;19960;-67
2024/01/08 10:18:48;;;;;;;;;;;;;;;-0.72;46.06;96132.59;6269186;28;19928;-67
2024/01/08 10:22:07;;;;;;;;;;;;;;;-4.02;50.40;96141.97;6269133;28;19921;-68
2024/01/08 10:25:08;;;;;;;;;;;;;;;-6.78;55.18;96147.59;6269254;28;19921;-67
2024/01/08 10:28:11;;;;;;;;;;;;;;;-8.24;58.16;96150.16;6269336;28;19920;-67
2024/01/08 10:31:15;;;;;;;;;;;;;;;-9.37;59.46;96150.34;6268739;28;19928;-68
2024/01/08 10:34:18;;;;;;;;;;;;;;;-9.90;59.99;96153.66;6269296;28;20013;-68
2024/01/08 10:37:19;;;;;;;;;;;;;;;-10.37;60.73;96161.97;6268912;28;19920;-68
2024/01/08 10:40:23;;;;;;;;;;;;;;;-11.01;60.20;96168.34;6269414;28;19925;-68
2024/01/08 10:43:29;;;;;;;;;;;;;;;-11.65;60.78;96177.94;6269157;28;19920;-66
2024/01/08 10:46:34;;;;;;;;;;;;;;;-11.98;62.11;96179.31;6269141;28;20006;-67
2024/01/08 10:49:39;;;;;;;;;;;;;;;-12.17;61.79;96179.94;6268415;28;19927;-67
2024/01/08 10:52:45;;;;;;;;;;;;;;;-12.58;61.91;96190.41;6262676;28;20416;-67
2024/01/08 10:55:47;;;;;;;;;;;;;;;-12.85;61.76;96206.88;6245577;28;20074;-68
2024/01/08 10:58:58;;;;;;;;;;;;;;;-13.03;62.48;96194.81;6231940;28;19927;-67
2024/01/08 11:02:07;;;;;;;;;;;;;;;-13.19;62.76;96206.41;6249575;28;20374;-66
2024/01/08 11:05:19;;;;;;;;;;;;;;;-13.40;62.32;96217.03;6249367;28;19920;-67
2024/01/08 11:08:23;;;;;;;;;;;;;;;-13.48;62.46;96220.25;6249272;28;19924;-68
2024/01/08 11:11:27;;;;;;;;;;;;;;;-13.61;62.84;96226.78;6249218;28;19921;-67
2024/01/08 11:14:29;;;;;;;;;;;;;;;-13.77;61.65;96228.19;6249418;28;19923;-68
2024/01/08 11:17:31;;;;;;;;;;;;;;;-13.97;62.54;96242.13;6248954;28;19927;-67
2024/01/08 11:20:39;;;;;;;;;;;;;;;-14.12;63.31;96245.19;6248552;28;19921;-67
2024/01/08 11:23:41;;;;;;;;;;;;;;;-14.26;62.99;96244.91;6248020;28;20023;-67
2024/01/08 11:26:43;;;;;;;;;;;;;;;-14.42;63.43;96247.94;6247736;28;19921;-68
2024/01/08 11:30:01;;;;;;;;;;;;;;;-14.52;63.69;96257.00;6248385;28;20306;-68
2024/01/08 11:33:25;;;;;;;;;;;;;;;-14.59;64.20;96261.06;6230270;28;20277;-67
2024/01/08 11:36:44;;;;;;;;;;;;;;;-14.73;64.45;96262.44;6239698;28;20385;-66
2024/01/08 11:39:50;;;;;;;;;;;;;;;-14.81;64.34;96263.94;6230877;28;20441;-67
2024/01/08 11:42:54;;;;;;;;;;;;;;;-14.77;65.03;96275.81;6248612;28;20428;-66
2024/01/08 11:45:59;;;;;;;;;;;;;;;-14.77;64.68;96273.28;6248311;28;20008;-67
2024/01/08 11:49:00;;;;;;;;;;;;;;;-14.94;64.54;96277.94;6247803;28;19921;-67
2024/01/08 11:52:05;;;;;;;;;;;;;;;-15.03;64.39;96278.59;6263263;28;19921;-67
2024/01/08 11:55:07;;;;;;;;;;;;;;;-15.06;64.82;96287.72;6248218;28;19921;-69
2024/01/08 11:58:09;;;;;;;;;;;;;;;-15.11;64.86;96284.22;6247568;28;20346;-68
2024/01/08 12:01:17;;;;;;;;;;;;;;;-15.24;64.87;96288.13;6248126;28;20051;-68
2024/01/08 12:04:18;;;;;;;;;;;;;;;-15.25;64.96;96287.28;6247871;28;20302;-67
2024/01/08 12:07:19;;;;;;;;;;;;;;;-15.31;64.97;96302.28;6247102;28;20338;-67
2024/01/08 12:10:20;;;;;;;;;;;;;;;-15.29;64.91;96290.53;6229810;28;19955;-68
2024/01/08 12:13:24;;;;;;;;;;;;;;;-15.42;65.16;96296.94;6247915;28;20255;-67
2024/01/08 12:16:29;;;;;;;;;;;;;;;-15.41;65.14;96296.13;6248113;28;19927;-67
2024/01/08 12:19:40;;;;;;;;;;;;;;;-15.29;65.30;96309.88;6247302;28;19920;-67
2024/01/08 12:22:44;;;;;;;;;;;;;;;-15.41;65.02;96300.31;6247465;28;19921;-66
2024/01/08 12:25:50;;;;;;;;;;;;;;;-15.39;65.26;96307.13;6247222;28;19935;-67
2024/01/08 12:28:54;;;;;;;;;;;;;;;-15.58;65.40;96312.47;6247209;28;19928;-67
2024/01/08 12:31:59;;;;;;;;;;;;;;;-15.70;65.51;96317.25;6247066;28;19936;-68
2024/01/08 12:35:04;;;;;;;;;;;;;;;-15.70;65.68;96317.25;6247307;28;19929;-68
2024/01/08 12:38:09;;;;;;;;;;;;;;;-15.55;65.18;96332.75;6247416;28;20359;-68
2024/01/08 12:41:13;;;;;;;;;;;;;;;-15.38;64.52;96340.75;6246988;28;19921;-66
2024/01/08 12:44:14;;;;;;;;;;;;;;;-15.68;64.18;96335.75;6246453;28;19920;-67
2024/01/08 12:47:16;;;;;;;;;;;;;;;-15.58;64.18;96342.75;6228910;28;19943;-66
2024/01/08 12:50:19;;;;;;;;;;;;;;;-15.82;63.61;96342.09;6246235;28;20390;-67
2024/01/08 12:53:23;;;;;;;;;;;;;;;-15.81;62.73;96349.72;6246813;28;19921;-68
2024/01/08 12:56:25;;;;;;;;;;;;;;;-16.04;63.32;96351.56;6228572;28;20012;-67
2024/01/08 12:59:28;;;;;;;;;;;;;;;-15.97;63.71;96352.59;6246147;28;19928;-67
2024/01/08 13:02:31;;;;;;;;;;;;;;;-16.02;64.16;96354.97;6245965;28;19921;-67
2024/01/08 13:05:32;;;;;;;;;;;;;;;-16.17;64.24;96360.41;6246169;28;20390;-67
2024/01/08 13:08:35;;;;;;;;;;;;;;;-16.16;64.61;96373.88;6246210;28;19956;-67
2024/01/08 13:11:39;;;;;;;;;;;;;;;-15.69;64.08;96369.38;6246399;28;19921;-67
2024/01/08 13:14:40;;;;;;;;;;;;;;;-15.93;63.82;96369.53;6246155;28;19927;-68
2024/01/08 13:17:41;;;;;;;;;;;;;;;-15.96;64.15;96384.53;6245526;28;20414;-67
2024/01/08 13:20:42;;;;;;;;;;;;;;;-16.41;63.67;96385.75;6226992;28;19921;-69
2024/01/08 13:23:45;;;;;;;;;;;;;;;-16.58;63.70;96382.69;6246039;28;20366;-67
2024/01/08 13:26:49;;;;;;;;;;;;;;;-16.67;64.35;96381.53;6245904;28;20012;-67
2024/01/08 13:29:52;;;;;;;;;;;;;;;-16.80;64.47;96395.44;6245719;28;19940;-68
2024/01/08 13:32:56;;;;;;;;;;;;;;;-16.72;64.80;96388.09;6245961;28;19921;-67
2024/01/08 13:36:00;;;;;;;;;;;;;;;-16.80;64.71;96401.31;6245074;28;19991;-66
2024/01/08 13:39:01;;;;;;;;;;;;;;;-16.51;64.07;96398.84;6244816;28;19921;-67
2024/01/08 13:42:04;;;;;;;;;;;;;;;-16.65;63.93;96410.13;6245631;28;19921;-66
2024/01/08 13:45:08;;;;;;;;;;;;;;;-16.81;64.18;96422.25;6245509;28;19920;-66
2024/01/08 13:48:12;;;;;;;;;;;;;;;-16.71;64.52;96423.38;6245687;28;19920;-68
2024/01/08 13:51:16;;;;;;;;;;;;;;;-16.67;64.22;96432.75;6245383;28;20313;-68
2024/01/08 13:54:18;;;;;;;;;;;;;;;-16.78;64.09;96429.91;6245268;28;19921;-67
2024/01/08 13:57:19;;;;;;;;;;;;;;;-16.60;64.67;96443.88;6244673;28;19931;-68
2024/01/08 14:00:22;;;;;;;;;;;;;;;-16.46;64.70;96445.16;6245037;28;20306;-67
2024/01/08 14:03:23;;;;;;;;;;;;;;;-16.31;64.34;96438.09;6244258;28;19948;-67
2024/01/08 14:06:24;;;;;;;;;;;;;;;-16.04;63.83;96434.72;6244763;28;19964;-67
2024/01/08 14:09:27;;;;;;;;;;;;;;;-16.17;64.00;96441.03;6244321;28;19936;-68
2024/01/08 14:12:28;;;;;;;;;;;;;;;-16.26;64.09;96442.44;6244297;28;20346;-68
2024/01/08 14:15:29;;;;;;;;;;;;;;;-16.14;64.61;96447.84;6226689;28;19921;-67
2024/01/08 14:18:35;;;;;;;;;;;;;;;-16.13;64.76;96452.09;6245055;28;20312;-67
2024/01/08 14:21:40;;;;;;;;;;;;;;;-16.15;64.68;96443.63;6244854;28;19921;-67
2024/01/08 14:24:43;;;;;;;;;;;;;;;-16.04;64.64;96454.88;6244429;28;20017;-68
2024/01/08 14:27:44;;;;;;;;;;;;;;;-15.89;65.04;96441.91;6226170;28;19932;-66
2024/01/08 14:30:45;;;;;;;;;;;;;;;-15.96;64.79;96439.97;6243623;28;19920;-68
2024/01/08 14:33:46;;;;;;;;;;;;;;;-15.95;64.86;96449.28;6244300;28;19928;-67
2024/01/08 14:36:52;;;;;;;;;;;;;;;-15.85;65.51;96457.16;6243786;28;19925;-68
2024/01/08 14:39:57;;;;;;;;;;;;;;;-15.83;65.47;96462.25;6244482;28;20326;-67
2024/01/08 14:43:00;;;;;;;;;;;;;;;-15.75;64.77;96465.84;6244378;28;19921;-67
2024/01/08 14:46:07;;;;;;;;;;;;;;;-16.11;65.27;96470.63;6244359;28;20279;-67
2024/01/08 14:49:08;;;;;;;;;;;;;;;-16.46;65.24;96475.38;6243867;28;19927;-67
2024/01/08 14:52:12;;;;;;;;;;;;;;;-16.54;65.49;96479.31;6243765;28;20020;-66
2024/01/08 14:55:15;;;;;;;;;;;;;;;-16.38;65.63;96478.16;6244136;28;19983;-67
2024/01/08 14:58:19;;;;;;;;;;;;;;;-16.27;65.41;96478.47;6243871;28;20452;-67
2024/01/08 15:01:20;;;;;;;;;;;;;;;-16.71;65.01;96475.38;6243454;28;19968;-67
2024/01/08 15:04:24;;;;;;;;;;;;;;;-16.95;65.27;96501.47;6243652;28;19924;-67
2024/01/08 15:07:24;;;;;;;;;;;;;;;-17.05;65.72;96509.47;6243323;28;19932;-68
2024/01/08 15:10:26;;;;;;;;;;;;;;;-17.14;65.93;96529.28;6242937;28;19928;-68
2024/01/08 15:13:27;;;;;;;;;;;;;;;-17.04;66.14;96512.06;6243148;28;20002;-69
2024/01/08 15:16:28;;;;;;;;;;;;;;;-16.92;66.21;96520.84;6243735;28;20409;-67
2024/01/08 15:19:31;;;;;;;;;;;;;;;-16.81;66.28;96535.50;6243195;28;20605;-68
2024/01/08 15:22:37;;;;;;;;;;;;;;;-16.68;66.59;96539.25;6243641;28;19940;-68
2024/01/08 15:25:38;;;;;;;;;;;;;;;-16.21;65.99;96531.59;6243843;28;19928;-67
2024/01/08 15:28:46;;;;;;;;;;;;;;;-16.22;64.80;96537.44;6242784;28;19921;-69
2024/01/08 15:31:47;;;;;;;;;;;;;;;-16.32;64.49;96542.19;6225701;28;20015;-68
2024/01/08 15:34:49;;;;;;;;;;;;;;;-16.69;64.70;96544.25;6243248;28;19921;-67
2024/01/08 15:37:52;;;;;;;;;;;;;;;-16.89;64.49;96534.38;6242973;28;19925;-67
2024/01/08 15:40:56;;;;;;;;;;;;;;;-17.21;64.73;96541.63;6243315;28;20339;-66
2024/01/08 15:44:15;;;;;;;;;;;;;;;-17.38;65.11;96525.06;6247899;28;20390;-66